Time;durP1;ratioP1;P1;durP2;ratioP2;P2;SDS_P1;SDS_P2;PMS_P1;PMS_P2;Temp;Humidity;BMP_temperature;BMP_pressure;BME280_temperature;BME280_humidity;BME280_pressure;Samples;Min_cycle;Max_cycle;Signal;HPM_P1;HPM_P2
2021/04/24 00:00:37;;;;;;;34.05;14.23;;;1.20;99.90;;;;;;5010262;28;20534;-74
2021/04/24 00:03:05;;;;;;;28.38;14.90;;;1.10;99.90;;;;;;4994439;28;20487;-74
2021/04/24 00:05:39;;;;;;;24.63;13.20;;;1.10;99.90;;;;;;5026334;28;20088;-74
2021/04/24 00:08:07;;;;;;;26.27;13.98;;;1.00;99.90;;;;;;5038436;28;20150;-74
2021/04/24 00:10:37;;;;;;;25.52;14.77;;;0.90;99.90;;;;;;5045001;28;20052;-71
2021/04/24 00:13:07;;;;;;;27.48;14.18;;;1.00;99.90;;;;;;5041096;28;20487;-73
2021/04/24 00:15:34;;;;;;;27.95;13.88;;;1.10;99.90;;;;;;5036869;28;20412;-73
2021/04/24 00:18:02;;;;;;;23.70;13.43;;;1.20;99.90;;;;;;5046965;28;20041;-73
2021/04/24 00:20:28;;;;;;;36.97;14.30;;;0.90;99.90;;;;;;5011879;28;20045;-73
2021/04/24 00:22:55;;;;;;;29.45;14.18;;;0.90;99.90;;;;;;5024378;28;20049;-74
2021/04/24 00:25:22;;;;;;;21.98;14.25;;;0.90;99.90;;;;;;5029217;28;20052;-72
2021/04/24 00:27:48;;;;;;;21.45;13.60;;;0.80;99.90;;;;;;5047093;28;20135;-73
2021/04/24 00:30:16;;;;;;;25.50;15.10;;;0.80;99.90;;;;;;5046034;28;20171;-72
2021/04/24 00:32:42;;;;;;;26.35;13.40;;;0.70;99.90;;;;;;5063228;28;20139;-72
2021/04/24 00:35:10;;;;;;;28.02;14.57;;;0.70;99.90;;;;;;5029697;28;20045;-73
2021/04/24 00:37:37;;;;;;;22.65;13.27;;;0.70;99.90;;;;;;5038332;28;20045;-72
2021/04/24 00:40:06;;;;;;;25.77;13.70;;;0.70;99.90;;;;;;5046887;28;20058;-73
2021/04/24 00:42:33;;;;;;;41.55;15.20;;;0.60;99.90;;;;;;5012139;28;20045;-74
2021/04/24 00:44:59;;;;;;;30.20;14.25;;;0.60;99.90;;;;;;5027970;28;20041;-74
2021/04/24 00:47:26;;;;;;;24.48;14.75;;;0.50;99.90;;;;;;5025842;28;20108;-73
2021/04/24 00:49:53;;;;;;;30.80;15.50;;;0.40;99.90;;;;;;5017554;28;20136;-72
2021/04/24 00:52:20;;;;;;;24.45;13.75;;;0.40;99.90;;;;;;5028824;28;20049;-75
2021/04/24 00:54:47;;;;;;;23.45;13.00;;;0.50;99.90;;;;;;5026442;28;20056;-73
2021/04/24 00:57:15;;;;;;;25.90;14.25;;;0.50;99.90;;;;;;5026503;28;20045;-72
2021/04/24 00:59:41;;;;;;;26.15;13.63;;;0.40;99.90;;;;;;5036399;28;20048;-76
2021/04/24 01:02:09;;;;;;;24.63;13.85;;;0.30;99.90;;;;;;5014372;28;20128;-75
2021/04/24 01:04:36;;;;;;;24.55;13.80;;;0.40;99.90;;;;;;5023846;28;20374;-71
2021/04/24 01:07:04;;;;;;;27.08;13.85;;;0.30;99.90;;;;;;5011868;28;20131;-73
2021/04/24 01:09:31;;;;;;;24.52;15.63;;;0.30;99.90;;;;;;5025120;28;20056;-72
2021/04/24 01:11:59;;;;;;;33.17;14.38;;;0.30;99.90;;;;;;5011463;28;20037;-72
2021/04/24 01:14:25;;;;;;;30.90;15.20;;;0.30;99.90;;;;;;5047099;28;20057;-73
2021/04/24 01:16:52;;;;;;;23.45;13.35;;;0.40;99.90;;;;;;5037125;28;20067;-70
2021/04/24 01:19:23;;;;;;;32.85;16.15;;;0.40;99.90;;;;;;5008691;28;20038;-72
2021/04/24 01:21:51;;;;;;;28.80;15.32;;;0.50;99.90;;;;;;5007901;28;20584;-71
2021/04/24 01:24:19;;;;;;;30.20;15.00;;;0.40;99.90;;;;;;5025002;28;20046;-72
2021/04/24 01:26:47;;;;;;;28.30;14.50;;;0.30;99.90;;;;;;5008687;28;20050;-72
2021/04/24 01:29:14;;;;;;;30.60;14.32;;;0.50;99.90;;;;;;5026241;28;20128;-71
2021/04/24 01:31:40;;;;;;;35.65;15.32;;;0.50;99.90;;;;;;4992203;28;20561;-72
2021/04/24 01:34:07;;;;;;;28.17;14.52;;;0.40;99.90;;;;;;5034957;28;20049;-72
2021/04/24 01:36:35;;;;;;;28.17;13.73;;;0.30;99.90;;;;;;5027526;28;20304;-73
2021/04/24 01:39:06;;;;;;;28.00;13.05;;;0.20;99.90;;;;;;5027210;28;20512;-73
2021/04/24 01:41:33;;;;;;;33.78;13.73;;;0.20;99.90;;;;;;5024366;28;20049;-71
2021/04/24 01:44:01;;;;;;;26.90;13.43;;;0.10;99.90;;;;;;5022752;28;20067;-71
2021/04/24 01:46:27;;;;;;;25.85;12.10;;;0.10;99.90;;;;;;5037243;28;20041;-72
2021/04/24 01:48:54;;;;;;;27.38;12.18;;;0.10;99.90;;;;;;5033796;28;20428;-73
2021/04/24 01:51:20;;;;;;;25.92;12.73;;;0.00;99.90;;;;;;5028387;28;20049;-73
2021/04/24 01:53:48;;;;;;;26.13;12.32;;;-0.10;99.90;;;;;;5035812;28;20080;-71
2021/04/24 01:56:59;;;;;;;30.13;11.93;;;-0.10;99.90;;;;;;5036029;28;20327;-72
2021/04/24 01:59:27;;;;;;;23.13;11.57;;;-0.10;99.90;;;;;;5040523;28;20044;-72
2021/04/24 02:01:55;;;;;;;24.63;10.02;;;-0.10;99.90;;;;;;5042159;28;20073;-71
2021/04/24 02:04:23;;;;;;;24.98;10.88;;;-0.10;99.90;;;;;;5028178;28;20123;-71
2021/04/24 02:06:50;;;;;;;23.45;11.70;;;0.00;99.90;;;;;;5037462;28;20084;-72
2021/04/24 02:09:18;;;;;;;28.88;11.88;;;0.00;99.90;;;;;;5032648;28;20040;-73
2021/04/24 02:11:59;;;;;;;27.83;12.40;;;0.00;99.90;;;;;;5028355;28;20156;-73
2021/04/24 02:14:25;;;;;;;26.08;10.63;;;0.00;99.90;;;;;;5045733;28;20136;-73
2021/04/24 02:16:51;;;;;;;24.75;9.73;;;-0.10;99.90;;;;;;5036514;28;20099;-72
2021/04/24 02:19:18;;;;;;;21.52;9.68;;;-0.20;99.90;;;;;;5026948;28;20087;-72
2021/04/24 02:21:44;;;;;;;21.13;8.60;;;-0.20;99.90;;;;;;5032777;28;20041;-73
2021/04/24 02:24:11;;;;;;;23.67;9.35;;;-0.30;99.90;;;;;;5033034;28;20132;-73
2021/04/24 02:26:37;;;;;;;26.42;9.38;;;-0.20;99.90;;;;;;5007998;28;20077;-72
2021/04/24 02:29:04;;;;;;;23.50;9.85;;;-0.20;99.90;;;;;;5007452;28;20336;-73
2021/04/24 02:31:30;;;;;;;23.40;9.82;;;-0.20;99.90;;;;;;5008622;28;20416;-73
2021/04/24 02:33:56;;;;;;;23.85;10.02;;;-0.30;99.90;;;;;;5012244;28;20037;-72
2021/04/24 02:36:23;;;;;;;23.17;10.43;;;-0.20;99.90;;;;;;5045667;28;20041;-72
2021/04/24 02:38:51;;;;;;;29.58;10.90;;;-0.20;99.90;;;;;;5040470;28;20419;-73
2021/04/24 02:41:18;;;;;;;18.15;10.43;;;-0.30;99.90;;;;;;5034140;28;20708;-72
2021/04/24 02:43:45;;;;;;;22.40;9.75;;;-0.30;99.90;;;;;;5026863;28;20132;-72
2021/04/24 02:46:13;;;;;;;30.48;11.25;;;-0.40;99.90;;;;;;5023847;28;20044;-73
2021/04/24 02:48:40;;;;;;;19.75;10.23;;;-0.40;99.90;;;;;;5027677;28;20687;-73
2021/04/24 02:51:06;;;;;;;28.45;10.38;;;-0.50;99.90;;;;;;5026878;28;20370;-71
2021/04/24 02:53:32;;;;;;;28.10;12.02;;;-0.50;99.90;;;;;;5044465;28;20045;-72
2021/04/24 02:56:00;;;;;;;24.05;11.00;;;-0.50;99.90;;;;;;5045028;28;20060;-72
2021/04/24 02:58:27;;;;;;;24.65;10.88;;;-0.50;99.90;;;;;;5015611;28;20046;-72
2021/04/24 03:00:53;;;;;;;27.13;11.45;;;-0.50;99.90;;;;;;4995071;28;20136;-72
2021/04/24 03:03:20;;;;;;;25.75;11.30;;;-0.60;99.90;;;;;;5025675;28;20409;-73
2021/04/24 03:05:46;;;;;;;23.35;11.80;;;-0.60;99.90;;;;;;5027611;28;20056;-73
2021/04/24 03:08:13;;;;;;;22.85;11.18;;;-0.60;99.90;;;;;;5047266;28;20136;-73
2021/04/24 03:10:41;;;;;;;20.00;10.95;;;-0.70;99.90;;;;;;5030253;28;20049;-73
2021/04/24 03:13:09;;;;;;;20.85;10.90;;;-0.70;99.90;;;;;;5047967;28;20458;-72
2021/04/24 03:15:37;;;;;;;20.08;10.77;;;-0.60;99.90;;;;;;5030690;28;20041;-73
2021/04/24 03:18:04;;;;;;;23.85;11.18;;;-0.70;99.90;;;;;;5018117;28;20145;-74
2021/04/24 03:20:31;;;;;;;21.48;10.77;;;-0.70;99.90;;;;;;5048340;28;20567;-72
2021/04/24 03:22:59;;;;;;;26.40;11.80;;;-0.70;99.90;;;;;;5030300;28;20037;-72
2021/04/24 03:25:26;;;;;;;26.85;11.57;;;-0.80;99.90;;;;;;5048327;28;20176;-72
2021/04/24 03:27:53;;;;;;;21.70;9.77;;;-0.80;99.90;;;;;;5031108;28;20104;-73
2021/04/24 03:30:19;;;;;;;28.20;11.43;;;-0.80;99.90;;;;;;5014938;28;20148;-73
2021/04/24 03:32:46;;;;;;;21.17;9.80;;;-0.70;99.90;;;;;;5031567;28;20057;-71
2021/04/24 03:35:12;;;;;;;29.17;10.50;;;-0.70;99.90;;;;;;5047102;28;20486;-73
2021/04/24 03:37:39;;;;;;;23.73;10.85;;;-0.60;99.90;;;;;;5044427;28;20045;-72
2021/04/24 03:40:06;;;;;;;21.33;10.27;;;-0.60;99.90;;;;;;5013099;28;20579;-73
2021/04/24 03:42:33;;;;;;;21.90;10.73;;;-0.60;99.90;;;;;;5029675;28;20136;-72
2021/04/24 03:45:00;;;;;;;20.73;10.40;;;-0.80;99.90;;;;;;5046490;28;20049;-73
2021/04/24 03:47:26;;;;;;;26.40;11.25;;;-0.80;99.90;;;;;;5025486;28;20484;-73
2021/04/24 03:49:52;;;;;;;20.35;10.50;;;-0.80;99.90;;;;;;5027309;28;20077;-72
2021/04/24 03:52:19;;;;;;;24.48;10.45;;;-1.00;99.90;;;;;;5002666;28;20084;-73
2021/04/24 03:54:45;;;;;;;19.63;10.25;;;-1.00;99.90;;;;;;5009071;28;20115;-73
2021/04/24 03:57:11;;;;;;;22.15;10.32;;;-1.00;99.90;;;;;;5026739;28;20056;-73
2021/04/24 03:59:38;;;;;;;23.80;10.57;;;-0.80;99.90;;;;;;5044723;28;20485;-73
2021/04/24 04:02:04;;;;;;;23.15;10.10;;;-0.90;99.90;;;;;;5033040;28;20076;-72
2021/04/24 04:04:30;;;;;;;20.15;10.40;;;-0.80;99.90;;;;;;5028450;28;20049;-71
2021/04/24 04:06:57;;;;;;;25.58;11.73;;;-0.90;99.90;;;;;;5029696;28;20482;-72
2021/04/24 04:09:23;;;;;;;23.52;11.35;;;-0.90;99.90;;;;;;5029588;28;20131;-72
2021/04/24 04:11:50;;;;;;;18.52;10.18;;;-0.90;99.90;;;;;;5046404;28;20141;-72
2021/04/24 04:14:16;;;;;;;20.88;10.05;;;-0.80;99.90;;;;;;5041506;28;20497;-72
2021/04/24 04:16:42;;;;;;;18.58;9.48;;;-0.80;99.90;;;;;;5008940;28;20132;-72
2021/04/24 04:19:09;;;;;;;23.98;10.18;;;-0.70;99.90;;;;;;5019712;28;20037;-72
2021/04/24 04:21:36;;;;;;;26.65;10.35;;;-0.60;99.90;;;;;;5004308;28;20081;-72
2021/04/24 04:24:02;;;;;;;23.20;10.30;;;-0.60;99.90;;;;;;5044012;28;20078;-73
2021/04/24 04:26:29;;;;;;;21.63;9.13;;;-0.50;99.90;;;;;;5029985;28;20050;-73
2021/04/24 04:28:56;;;;;;;20.55;9.05;;;-0.30;99.90;;;;;;5034399;28;20053;-73
2021/04/24 04:31:22;;;;;;;16.48;9.18;;;-0.30;99.90;;;;;;5045142;28;20056;-71
2021/04/24 04:33:48;;;;;;;18.13;9.35;;;-0.20;99.90;;;;;;5029586;28;20389;-72
2021/04/24 04:36:15;;;;;;;23.20;10.57;;;-0.20;99.90;;;;;;5029141;28;20139;-73
2021/04/24 04:38:42;;;;;;;24.17;9.93;;;-0.30;99.90;;;;;;5045976;28;20607;-73
2021/04/24 04:41:08;;;;;;;20.42;9.73;;;0.00;99.90;;;;;;5032513;28;20051;-72
2021/04/24 04:43:35;;;;;;;20.95;10.25;;;0.00;99.90;;;;;;5023413;28;20077;-72
2021/04/24 04:46:01;;;;;;;20.88;9.70;;;0.20;99.90;;;;;;5015268;28;20103;-72
2021/04/24 04:48:27;;;;;;;19.10;11.07;;;0.20;99.90;;;;;;5045727;28;20060;-73
2021/04/24 04:50:54;;;;;;;23.02;11.00;;;0.30;99.90;;;;;;5020504;28;20073;-72
2021/04/24 04:53:21;;;;;;;23.38;10.65;;;0.40;99.90;;;;;;5018079;28;20241;-73
2021/04/24 04:56:07;;;;;;;19.55;11.73;;;0.40;99.90;;;;;;5009356;28;20501;-72
2021/04/24 04:58:33;;;;;;;24.27;10.80;;;0.50;99.90;;;;;;5031032;28;20060;-72
2021/04/24 05:00:59;;;;;;;18.00;9.95;;;0.50;99.90;;;;;;5027204;28;20156;-73
2021/04/24 05:03:26;;;;;;;33.83;19.92;;;0.50;99.90;;;;;;5033137;28;20050;-72
2021/04/24 05:05:52;;;;;;;24.77;11.48;;;0.60;99.90;;;;;;5002522;28;20055;-72
2021/04/24 05:08:18;;;;;;;22.27;9.60;;;0.80;99.90;;;;;;5014917;28;20405;-72
2021/04/24 05:10:45;;;;;;;23.50;9.88;;;0.50;99.90;;;;;;5075981;28;20106;-72
2021/04/24 05:13:11;;;;;;;25.70;10.68;;;0.40;99.90;;;;;;5043982;28;20041;-74
2021/04/24 05:15:37;;;;;;;21.05;9.90;;;0.40;99.90;;;;;;5046357;28;20057;-72
2021/04/24 05:18:04;;;;;;;20.08;9.77;;;0.50;99.90;;;;;;5045952;28;20136;-72
2021/04/24 05:20:30;;;;;;;18.33;9.65;;;0.60;99.90;;;;;;5012198;28;20492;-73
2021/04/24 05:22:57;;;;;;;14.57;9.52;;;0.70;99.90;;;;;;5045459;28;20049;-73
2021/04/24 05:25:23;;;;;;;20.17;10.75;;;1.00;99.90;;;;;;5020572;28;20102;-73
2021/04/24 05:27:50;;;;;;;21.10;11.48;;;1.10;99.90;;;;;;5008551;28;20056;-73
2021/04/24 05:30:17;;;;;;;20.05;12.57;;;1.30;99.90;;;;;;5025526;28;20053;-73
2021/04/24 05:32:45;;;;;;;23.80;14.15;;;1.30;99.90;;;;;;5046859;28;20057;-72
2021/04/24 05:35:15;;;;;;;27.65;12.60;;;1.40;99.90;;;;;;5044539;28;20045;-73
2021/04/24 05:37:42;;;;;;;22.15;12.57;;;1.60;99.90;;;;;;5044884;28;20071;-74
2021/04/24 05:40:09;;;;;;;25.50;13.35;;;1.70;99.90;;;;;;5023505;28;20516;-72
2021/04/24 05:42:35;;;;;;;26.70;14.25;;;1.80;99.90;;;;;;5022889;28;20045;-72
2021/04/24 05:45:10;;;;;;;23.85;13.02;;;1.90;99.90;;;;;;5025198;28;20041;-73
2021/04/24 05:47:37;;;;;;;;;;;1.90;99.90;;;;;;5039070;28;20106;-72
2021/04/24 05:50:05;;;;;;;19.25;11.70;;;2.00;99.90;;;;;;5036792;28;20012;-74
2021/04/24 05:52:31;;;;;;;22.80;12.75;;;2.10;99.90;;;;;;5042140;28;20040;-72
2021/04/24 05:54:58;;;;;;;26.25;13.40;;;2.10;99.90;;;;;;5039987;28;20056;-73
2021/04/24 05:57:24;;;;;;;22.75;12.40;;;2.20;99.90;;;;;;5023986;28;20149;-73
2021/04/24 05:59:50;;;;;;;18.15;12.18;;;2.30;99.90;;;;;;5042080;28;20053;-73
2021/04/24 06:02:17;;;;;;;23.88;13.52;;;2.40;99.90;;;;;;5036146;28;20038;-73
2021/04/24 06:04:43;;;;;;;21.40;11.73;;;2.60;99.90;;;;;;5024553;28;20282;-72
2021/04/24 06:07:09;;;;;;;23.23;13.23;;;2.70;99.90;;;;;;5013002;28;20169;-72
2021/04/24 06:09:36;;;;;;;23.70;12.88;;;2.70;99.90;;;;;;5014844;28;20065;-72
2021/04/24 06:12:03;;;;;;;22.58;12.38;;;2.80;99.90;;;;;;4989775;28;20070;-73
2021/04/24 06:14:29;;;;;;;25.90;12.80;;;2.90;99.90;;;;;;4996915;28;20065;-72
2021/04/24 06:16:56;;;;;;;27.95;14.15;;;3.10;99.90;;;;;;5023765;28;20096;-73
2021/04/24 06:19:23;;;;;;;24.83;13.20;;;3.10;99.90;;;;;;5024180;28;20140;-73
2021/04/24 06:21:49;;;;;;;22.92;13.40;;;3.20;99.90;;;;;;5013460;28;20041;-73
2021/04/24 06:24:15;;;;;;;19.38;12.48;;;3.30;99.90;;;;;;5024668;28;20062;-73
2021/04/24 06:26:42;;;;;;;19.10;12.75;;;3.40;99.90;;;;;;5007861;28;20068;-72
2021/04/24 06:29:08;;;;;;;28.67;13.15;;;3.50;99.90;;;;;;5024991;28;20136;-72
2021/04/24 06:31:37;;;;;;;23.15;12.70;;;3.70;99.90;;;;;;5025069;28;20071;-73
2021/04/24 06:34:04;;;;;;;21.65;13.07;;;3.80;99.90;;;;;;5037995;28;20149;-74
2021/04/24 06:36:30;;;;;;;24.70;16.08;;;4.30;99.90;;;;;;5018335;28;20046;-73
2021/04/24 06:38:58;;;;;;;22.33;15.25;;;4.60;99.90;;;;;;5008289;28;20056;-73
2021/04/24 06:41:25;;;;;;;20.02;16.23;;;4.80;99.90;;;;;;5008323;28;20041;-72
2021/04/24 06:43:52;;;;;;;24.88;17.50;;;5.10;99.90;;;;;;5043720;28;20096;-72
2021/04/24 06:46:18;;;;;;;22.45;17.23;;;5.30;99.90;;;;;;5026166;28;20045;-72
2021/04/24 06:48:44;;;;;;;20.25;15.82;;;5.60;99.90;;;;;;5043183;28;20060;-72
2021/04/24 06:51:11;;;;;;;23.27;16.52;;;5.90;99.90;;;;;;5040296;28;20416;-72
2021/04/24 06:53:37;;;;;;;23.10;16.33;;;6.10;99.90;;;;;;5023905;28;20050;-73
2021/04/24 06:56:04;;;;;;;29.65;17.83;;;6.30;99.90;;;;;;5025701;28;20108;-72
2021/04/24 06:58:30;;;;;;;31.20;17.52;;;6.30;99.90;;;;;;5027598;28;20089;-71
2021/04/24 07:00:56;;;;;;;23.15;16.73;;;6.30;99.90;;;;;;5027965;28;20061;-72
2021/04/24 07:03:24;;;;;;;20.13;16.25;;;6.30;99.90;;;;;;5029149;28;20359;-72
2021/04/24 07:05:51;;;;;;;21.60;16.30;;;6.30;99.90;;;;;;5043865;28;20124;-72
2021/04/24 07:08:18;;;;;;;23.30;15.70;;;6.40;99.90;;;;;;5047081;28;20063;-73
2021/04/24 07:10:45;;;;;;;21.48;16.38;;;6.50;99.90;;;;;;5046675;28;20068;-73
2021/04/24 07:13:13;;;;;;;25.02;15.77;;;6.60;99.90;;;;;;5045561;28;20120;-73
2021/04/24 07:15:39;;;;;;;20.92;14.77;;;6.60;99.90;;;;;;5047746;28;20044;-73
2021/04/24 07:18:06;;;;;;;24.73;14.45;;;6.70;99.90;;;;;;5014510;28;20060;-72
2021/04/24 07:20:32;;;;;;;23.50;16.92;;;6.70;99.90;;;;;;5041346;28;20037;-71
2021/04/24 07:22:59;;;;;;;19.27;16.88;;;6.80;99.90;;;;;;5024212;28;20063;-71
2021/04/24 07:25:25;;;;;;;20.63;16.02;;;7.00;99.90;;;;;;5044047;28;20057;-72
2021/04/24 07:27:52;;;;;;;18.52;15.88;;;7.00;99.90;;;;;;5062034;28;20136;-71
2021/04/24 07:30:19;;;;;;;19.88;17.15;;;6.90;99.90;;;;;;5061905;28;20072;-71
2021/04/24 07:32:45;;;;;;;17.38;15.13;;;6.90;99.90;;;;;;5053647;28;20514;-73
2021/04/24 07:35:12;;;;;;;14.80;13.30;;;7.00;99.90;;;;;;5017929;28;20072;-73
2021/04/24 07:37:39;;;;;;;21.55;14.77;;;7.00;99.90;;;;;;5022231;28;20059;-72
2021/04/24 07:40:06;;;;;;;19.80;15.77;;;7.00;99.90;;;;;;5045045;28;20074;-73
2021/04/24 07:42:33;;;;;;;17.17;14.82;;;7.00;99.90;;;;;;5049927;28;20145;-73
2021/04/24 07:44:59;;;;;;;17.00;14.13;;;7.00;99.90;;;;;;5044971;28;20049;-73
2021/04/24 07:47:25;;;;;;;17.77;15.90;;;7.10;99.90;;;;;;5009160;28;20075;-72
2021/04/24 07:49:52;;;;;;;16.48;14.68;;;7.00;99.90;;;;;;5026969;28;20118;-72
2021/04/24 07:52:20;;;;;;;17.00;15.40;;;7.10;99.90;;;;;;5012624;28;20045;-72
2021/04/24 07:54:46;;;;;;;15.60;14.15;;;7.20;99.90;;;;;;5031200;28;20081;-71
2021/04/24 07:57:14;;;;;;;15.30;13.82;;;7.40;99.90;;;;;;5041103;28;20061;-71
2021/04/24 07:59:42;;;;;;;16.30;14.13;;;7.90;99.90;;;;;;5019371;28;20511;-71
2021/04/24 08:02:10;;;;;;;15.63;14.10;;;8.20;99.90;;;;;;5044996;28;20053;-72
2021/04/24 08:04:36;;;;;;;16.80;15.30;;;8.40;99.90;;;;;;5047166;28;20042;-71
2021/04/24 08:07:03;;;;;;;21.88;17.00;;;8.40;99.90;;;;;;5029439;28;20041;-71
2021/04/24 08:09:29;;;;;;;15.57;14.02;;;8.40;99.90;;;;;;5046037;28;20268;-72
2021/04/24 08:11:56;;;;;;;15.77;14.35;;;8.30;99.90;;;;;;5057954;28;20053;-71
2021/04/24 08:14:23;;;;;;;18.45;16.67;;;8.30;99.90;;;;;;5029726;28;20058;-72
2021/04/24 08:16:50;;;;;;;18.17;15.75;;;8.30;99.90;;;;;;5011587;28;20607;-72
2021/04/24 08:19:16;;;;;;;17.13;15.45;;;8.20;99.90;;;;;;5011813;28;20057;-73
2021/04/24 08:21:44;;;;;;;16.02;14.27;;;8.10;99.90;;;;;;5029368;23;20163;-79
2021/04/24 08:24:11;;;;;;;15.70;14.50;;;8.10;99.90;;;;;;4990488;28;20128;-80
2021/04/24 08:26:38;;;;;;;16.00;14.45;;;8.00;99.90;;;;;;5009052;28;20626;-79
2021/04/24 08:29:07;;;;;;;15.57;14.15;;;8.40;99.90;;;;;;4978696;28;20141;-79
2021/04/24 08:31:44;;;;;;;15.23;13.93;;;8.60;99.90;;;;;;4984343;28;20045;-79
2021/04/24 08:34:17;;;;;;;20.83;18.77;;;9.40;99.90;;;;;;4991059;28;20065;-80
2021/04/24 08:36:46;;;;;;;38.22;33.50;;;9.10;99.90;;;;;;4968473;28;20050;-79
2021/04/24 08:39:20;;;;;;;16.05;14.52;;;9.50;99.90;;;;;;4963721;28;20038;-81
2021/04/24 08:41:46;;;;;;;15.85;14.32;;;9.70;99.90;;;;;;4966235;28;20568;-80
2021/04/24 08:44:16;;;;;;;15.52;14.02;;;9.80;99.90;;;;;;4959573;28;20039;-80
2021/04/24 08:46:47;;;;;;;16.73;15.23;;;10.30;99.90;;;;;;4958726;28;20137;-81
2021/04/24 08:49:21;;;;;;;15.40;14.00;;;10.60;99.90;;;;;;4990183;28;20053;-81
2021/04/24 08:51:49;;;;;;;14.85;13.45;;;11.00;99.90;;;;;;4975406;28;20085;-81
2021/04/24 08:54:16;;;;;;;17.27;14.30;;;10.70;99.90;;;;;;4976939;28;20303;-80
2021/04/24 08:56:43;;;;;;;15.77;14.48;;;10.30;99.90;;;;;;4985079;28;20142;-80
2021/04/24 08:59:10;;;;;;;14.63;13.43;;;10.20;99.90;;;;;;4971141;28;20475;-81
2021/04/24 09:01:38;;;;;;;15.02;13.73;;;10.10;99.90;;;;;;4999991;28;20062;-80
2021/04/24 09:04:05;;;;;;;15.52;14.07;;;10.30;99.90;;;;;;4998108;28;20076;-81
2021/04/24 09:06:35;;;;;;;15.93;14.48;;;10.30;99.90;;;;;;5007675;28;20046;-81
2021/04/24 09:09:08;;;;;;;18.02;13.88;;;10.70;99.90;;;;;;4994481;28;20126;-80
2021/04/24 09:11:40;;;;;;;15.05;13.75;;;10.90;99.90;;;;;;4994597;28;20049;-81
2021/04/24 09:14:09;;;;;;;14.73;13.20;;;11.30;99.90;;;;;;4985305;28;20046;-81
2021/04/24 09:16:38;;;;;;;13.90;12.77;;;11.60;99.90;;;;;;4976366;28;20447;-81
2021/04/24 09:19:27;;;;;;;13.77;12.77;;;11.50;99.90;;;;;;4982369;28;20073;-80
2021/04/24 09:22:20;;;;;;;15.68;14.15;;;11.50;99.90;;;;;;4978892;28;20631;-81
2021/04/24 09:24:54;;;;;;;15.90;14.38;;;11.80;99.90;;;;;;4967147;28;20481;-80
2021/04/24 09:27:46;;;;;;;15.88;14.50;;;11.90;99.90;;;;;;4941553;28;20046;-81
2021/04/24 09:30:15;;;;;;;14.65;13.35;;;11.40;99.90;;;;;;4990298;28;20416;-81
2021/04/24 09:32:41;;;;;;;15.18;13.77;;;11.20;99.90;;;;;;4958000;28;20054;-80
2021/04/24 09:35:08;;;;;;;15.25;12.85;;;10.90;99.90;;;;;;4989924;28;20054;-82
2021/04/24 09:37:35;;;;;;;14.48;13.18;;;10.60;99.90;;;;;;4974983;28;20100;-81
2021/04/24 09:40:10;;;;;;;15.52;13.30;;;10.70;99.90;;;;;;4990892;28;20042;-80
2021/04/24 09:42:41;;;;;;;14.10;12.90;;;10.90;99.90;;;;;;4973386;28;20093;-78
2021/04/24 09:45:30;;;;;;;14.90;13.60;;;11.30;99.90;;;;;;4986179;28;20041;-78
2021/04/24 09:47:59;;;;;;;14.18;12.90;;;11.90;99.90;;;;;;4985295;28;20428;-81
2021/04/24 09:50:37;;;;;;;19.52;12.95;;;12.20;99.90;;;;;;4967354;28;20046;-80
2021/04/24 09:53:23;;;;;;;14.27;13.00;;;12.10;99.90;;;;;;4962942;28;20050;-80
2021/04/24 09:55:53;;;;;;;14.15;12.95;;;11.60;99.90;;;;;;4973428;28;20077;-82
2021/04/24 09:58:41;;;;;;;14.35;13.25;;;11.60;99.90;;;;;;4977103;28;20050;-80
2021/04/24 10:01:26;;;;;;;14.60;13.25;;;11.90;99.90;;;;;;4960476;28;20054;-80
2021/04/24 10:03:54;;;;;;;13.75;12.48;;;11.90;99.90;;;;;;4973817;28;20081;-81
2021/04/24 10:06:30;;;;;;;13.95;13.05;;;12.10;99.90;;;;;;4973584;28;20086;-80
2021/04/24 10:09:16;;;;;;;13.85;12.90;;;12.40;99.90;;;;;;4972369;28;20074;-79
2021/04/24 10:11:46;;;;;;;15.15;13.73;;;12.60;99.90;;;;;;4954563;28;20053;-81
2021/04/24 10:14:13;;;;;;;14.85;13.35;;;12.50;99.90;;;;;;4961178;28;20685;-80
2021/04/24 10:16:44;;;;;;;14.50;13.25;;;12.50;99.90;;;;;;4971062;28;20080;-79
2021/04/24 10:19:14;;;;;;;14.82;13.63;;;12.90;99.90;;;;;;4983411;28;20557;-79
2021/04/24 10:21:42;;;;;;;14.40;13.30;;;12.10;99.90;;;;;;4997383;28;20057;-80
2021/04/24 10:24:09;;;;;;;15.05;13.50;;;11.40;99.90;;;;;;5011129;28;20144;-80
2021/04/24 10:26:37;;;;;;;14.32;12.95;;;11.70;99.90;;;;;;4997598;28;20423;-79
2021/04/24 10:29:05;;;;;;;13.52;12.50;;;11.20;99.90;;;;;;5001314;28;20049;-81
2021/04/24 10:31:35;;;;;;;13.95;12.95;;;11.40;99.90;;;;;;4998459;28;20119;-79
2021/04/24 10:34:04;;;;;;;14.77;13.50;;;11.30;99.90;;;;;;5000861;28;20050;-79
2021/04/24 10:36:36;;;;;;;14.20;13.07;;;11.50;99.90;;;;;;4963917;28;20388;-80
2021/04/24 10:39:27;;;;;;;14.63;13.43;;;11.90;99.90;;;;;;4973263;28;20121;-80
2021/04/24 10:41:54;;;;;;;13.45;12.55;;;11.50;99.90;;;;;;4971678;28;20157;-81
2021/04/24 10:44:22;;;;;;;13.93;12.90;;;11.10;99.90;;;;;;4973631;28;20043;-81
2021/04/24 10:46:56;;;;;;;12.65;11.57;;;11.30;99.90;;;;;;4969868;28;20465;-81
2021/04/24 10:49:31;;;;;;;14.02;12.73;;;11.90;99.90;;;;;;4952060;28;20050;-81
2021/04/24 10:52:00;;;;;;;13.25;12.38;;;12.30;99.90;;;;;;4968339;28;20058;-80
2021/04/24 10:54:30;;;;;;;14.45;13.25;;;12.60;99.90;;;;;;4975263;28;20046;-80
2021/04/24 10:56:58;;;;;;;15.25;13.80;;;12.70;99.90;;;;;;4980008;28;20078;-79
2021/04/24 10:59:25;;;;;;;14.65;13.40;;;12.50;99.90;;;;;;4974025;28;20054;-80
2021/04/24 11:02:17;;;;;;;13.90;12.57;;;12.00;99.90;;;;;;4959309;28;20042;-81
2021/04/24 11:04:53;;;;;;;14.02;12.65;;;12.40;99.90;;;;;;4964562;28;20057;-80
2021/04/24 11:07:27;;;;;;;13.45;12.20;;;12.80;99.90;;;;;;4994517;28;20041;-83
2021/04/24 11:10:13;;;;;;;18.27;13.63;;;12.90;99.90;;;;;;4999092;28;20049;-81
2021/04/24 11:12:42;;;;;;;13.30;11.90;;;12.70;99.90;;;;;;4978763;28;20068;-80
2021/04/24 11:15:10;;;;;;;14.25;13.05;;;12.60;99.90;;;;;;5003878;28;20141;-81
2021/04/24 11:17:38;;;;;;;14.50;13.30;;;11.60;99.90;;;;;;5015969;28;20148;-81
2021/04/24 11:20:08;;;;;;;13.70;12.43;;;11.70;99.90;;;;;;5001221;28;20049;-82
2021/04/24 11:22:36;;;;;;;13.90;12.80;;;12.20;99.90;;;;;;4993350;28;20050;-80
2021/04/24 11:25:23;;;;;;;14.57;13.13;;;12.30;99.90;;;;;;4998960;28;20477;-81
2021/04/24 11:28:10;;;;;;;14.57;13.35;;;12.40;99.90;;;;;;5013143;28;20116;-80
2021/04/24 11:30:57;;;;;;;14.43;13.13;;;11.40;99.90;;;;;;4996550;28;20407;-81
2021/04/24 11:34:20;;;;;;;13.25;12.35;;;11.10;99.90;;;;;;4997838;28;20042;-79
2021/04/24 11:36:46;;;;;;;14.32;13.02;;;11.80;99.90;;;;;;4981819;28;20135;-83
2021/04/24 11:39:15;;;;;;;14.27;12.98;;;12.50;99.90;;;;;;5002624;28;20045;-82
2021/04/24 11:41:50;;;;;;;14.45;13.23;;;13.00;99.90;;;;;;4993518;28;20064;-81
2021/04/24 11:44:38;;;;;;;14.98;12.32;;;13.50;99.90;;;;;;5020059;28;20255;-78
2021/04/24 11:47:08;;;;;;;13.18;12.18;;;13.70;99.90;;;;;;4985720;28;20049;-79
2021/04/24 11:49:49;;;;;;;13.32;12.32;;;13.70;99.90;;;;;;4983521;28;20192;-81
2021/04/24 11:52:16;;;;;;;15.52;14.23;;;13.60;99.90;;;;;;4982592;28;20172;-81
2021/04/24 11:54:43;;;;;;;14.07;12.82;;;13.30;99.90;;;;;;5000713;28;20046;-80
2021/04/24 11:57:12;;;;;;;14.43;13.10;;;13.30;99.90;;;;;;4979537;28;20152;-78
2021/04/24 11:59:40;;;;;;;15.45;14.13;;;13.30;99.90;;;;;;4996925;28;20050;-80
2021/04/24 12:02:15;;;;;;;14.05;12.95;;;13.20;99.90;;;;;;4996002;28;20038;-80
2021/04/24 12:04:42;;;;;;;14.10;12.88;;;13.00;99.90;;;;;;4995878;28;20054;-79
2021/04/24 12:07:17;;;;;;;13.43;12.25;;;13.20;99.90;;;;;;4995150;28;20050;-80
2021/04/24 12:09:54;;;;;;;14.02;12.57;;;13.10;99.90;;;;;;4994181;28;20570;-79
2021/04/24 12:12:37;;;;;;;13.93;12.05;;;12.90;99.90;;;;;;5008559;28;20125;-80
2021/04/24 12:15:12;;;;;;;13.30;12.07;;;13.20;99.90;;;;;;4996814;28;20415;-79
2021/04/24 12:17:47;;;;;;;13.38;12.10;;;13.50;99.90;;;;;;4984930;28;20058;-80
2021/04/24 12:20:30;;;;;;;13.48;12.43;;;13.50;99.90;;;;;;4996799;28;20569;-80
2021/04/24 12:23:02;;;;;;;13.35;12.18;;;13.10;99.90;;;;;;5011686;28;20108;-79
2021/04/24 12:25:30;;;;;;;13.77;12.35;;;13.20;99.90;;;;;;4978571;28;20053;-79
2021/04/24 12:27:59;;;;;;;13.55;11.90;;;13.30;99.90;;;;;;4976503;28;20054;-81
2021/04/24 12:30:31;;;;;;;14.10;12.90;;;13.40;99.90;;;;;;5011299;28;20553;-79
2021/04/24 12:33:20;;;;;;;12.98;11.80;;;12.60;99.90;;;;;;4980138;28;20053;-81
2021/04/24 12:36:01;;;;;;;13.50;12.40;;;12.30;99.90;;;;;;4978372;28;20065;-80
2021/04/24 12:38:31;;;;;;;13.88;12.90;;;12.70;99.90;;;;;;4994898;28;20561;-82
2021/04/24 12:41:04;;;;;;;14.63;13.38;;;12.90;99.90;;;;;;4976268;28;20064;-81
2021/04/24 12:43:36;;;;;;;15.43;13.93;;;12.30;99.90;;;;;;4968437;28;20472;-81